sensor_id;sensor_type;location;lat;lon;timestamp;pressure;altitude;pressure_sealevel;temperature;humidity
18813;BME280;9534;51.140;6.296;2023-07-30T00:00:39;102532.72;;;15.86;100.00
18813;BME280;9534;51.140;6.296;2023-07-30T00:04:42;102518.03;;;15.85;100.00
18813;BME280;9534;51.140;6.296;2023-07-30T00:08:46;102506.69;;;15.74;100.00
18813;BME280;9534;51.140;6.296;2023-07-30T00:12:50;102499.94;;;15.76;100.00
18813;BME280;9534;51.140;6.296;2023-07-30T00:16:53;102495.59;;;15.67;100.00
18813;BME280;9534;51.140;6.296;2023-07-30T00:20:56;102480.66;;;15.62;100.00
18813;BME280;9534;51.140;6.296;2023-07-30T00:24:59;102452.63;;;15.37;100.00
18813;BME280;9534;51.140;6.296;2023-07-30T00:29:03;102433.16;;;15.24;100.00
18813;BME280;9534;51.140;6.296;2023-07-30T00:33:06;102408.94;;;15.41;100.00
18813;BME280;9534;51.140;6.296;2023-07-30T00:37:09;102394.13;;;15.27;100.00
18813;BME280;9534;51.140;6.296;2023-07-30T00:41:12;102361.66;;;15.23;100.00
18813;BME280;9534;51.140;6.296;2023-07-30T00:45:17;102357.63;;;15.25;100.00
18813;BME280;9534;51.140;6.296;2023-07-30T00:49:20;102365.84;;;15.19;100.00
18813;BME280;9534;51.140;6.296;2023-07-30T00:53:23;102365.72;;;15.27;100.00
18813;BME280;9534;51.140;6.296;2023-07-30T00:57:26;102380.72;;;15.39;100.00
18813;BME280;9534;51.140;6.296;2023-07-30T01:01:31;102414.72;;;15.46;100.00
18813;BME280;9534;51.140;6.296;2023-07-30T01:05:36;102455.28;;;15.73;100.00
18813;BME280;9534;51.140;6.296;2023-07-30T01:09:39;102505.25;;;15.78;100.00
18813;BME280;9534;51.140;6.296;2023-07-30T01:13:42;102589.00;;;16.06;100.00
18813;BME280;9534;51.140;6.296;2023-07-30T01:17:50;102685.03;;;16.24;100.00
18813;BME280;9534;51.140;6.296;2023-07-30T01:21:55;102760.09;;;16.28;100.00
18813;BME280;9534;51.140;6.296;2023-07-30T01:25:59;102819.63;;;16.30;100.00
18813;BME280;9534;51.140;6.296;2023-07-30T01:30:05;102826.34;;;16.21;100.00
18813;BME280;9534;51.140;6.296;2023-07-30T01:34:10;102829.66;;;16.17;100.00
18813;BME280;9534;51.140;6.296;2023-07-30T01:38:15;102859.69;;;16.20;100.00
18813;BME280;9534;51.140;6.296;2023-07-30T01:42:18;102847.22;;;16.09;100.00
18813;BME280;9534;51.140;6.296;2023-07-30T01:46:21;102837.22;;;16.08;100.00
18813;BME280;9534;51.140;6.296;2023-07-30T01:50:24;102814.06;;;15.95;100.00
18813;BME280;9534;51.140;6.296;2023-07-30T01:54:29;102786.78;;;15.86;100.00
18813;BME280;9534;51.140;6.296;2023-07-30T01:58:32;102772.75;;;15.87;100.00
18813;BME280;9534;51.140;6.296;2023-07-30T02:02:35;102768.88;;;15.82;100.00
18813;BME280;9534;51.140;6.296;2023-07-30T02:06:38;102741.09;;;15.69;100.00
18813;BME280;9534;51.140;6.296;2023-07-30T02:10:44;102718.16;;;15.68;100.00
18813;BME280;9534;51.140;6.296;2023-07-30T02:14:47;102690.38;;;15.55;100.00
18813;BME280;9534;51.140;6.296;2023-07-30T02:18:50;102660.78;;;15.49;100.00
18813;BME280;9534;51.140;6.296;2023-07-30T02:22:53;102640.59;;;15.49;100.00
18813;BME280;9534;51.140;6.296;2023-07-30T02:26:57;102630.63;;;15.48;100.00
18813;BME280;9534;51.140;6.296;2023-07-30T02:31:01;102618.06;;;15.45;100.00
18813;BME280;9534;51.140;6.296;2023-07-30T02:35:04;102622.53;;;15.46;100.00
18813;BME280;9534;51.140;6.296;2023-07-30T02:39:07;102649.53;;;15.51;100.00
18813;BME280;9534;51.140;6.296;2023-07-30T02:43:11;102707.97;;;15.69;100.00
18813;BME280;9534;51.140;6.296;2023-07-30T02:47:14;102723.78;;;15.60;100.00
18813;BME280;9534;51.140;6.296;2023-07-30T02:51:17;102727.31;;;15.54;100.00
18813;BME280;9534;51.140;6.296;2023-07-30T02:55:20;102705.50;;;15.45;100.00
18813;BME280;9534;51.140;6.296;2023-07-30T02:59:25;102682.53;;;15.38;100.00
18813;BME280;9534;51.140;6.296;2023-07-30T03:03:28;102676.19;;;15.44;100.00
18813;BME280;9534;51.140;6.296;2023-07-30T03:07:31;102664.41;;;15.50;100.00
18813;BME280;9534;51.140;6.296;2023-07-30T03:11:34;102680.13;;;15.49;100.00
18813;BME280;9534;51.140;6.296;2023-07-30T03:15:38;102706.19;;;15.61;100.00
18813;BME280;9534;51.140;6.296;2023-07-30T03:19:42;102748.16;;;15.71;100.00
18813;BME280;9534;51.140;6.296;2023-07-30T03:23:45;102777.25;;;15.74;100.00
18813;BME280;9534;51.140;6.296;2023-07-30T03:27:50;102787.91;;;15.77;100.00
18813;BME280;9534;51.140;6.296;2023-07-30T03:31:54;102794.50;;;15.76;100.00
18813;BME280;9534;51.140;6.296;2023-07-30T03:35:57;102802.88;;;15.82;100.00
18813;BME280;9534;51.140;6.296;2023-07-30T03:40:01;102822.47;;;15.87;100.00
18813;BME280;9534;51.140;6.296;2023-07-30T03:44:04;102805.81;;;15.81;100.00
18813;BME280;9534;51.140;6.296;2023-07-30T03:48:08;102826.75;;;15.90;100.00
18813;BME280;9534;51.140;6.296;2023-07-30T03:52:11;102831.78;;;15.86;100.00
18813;BME280;9534;51.140;6.296;2023-07-30T03:56:14;102837.81;;;15.90;100.00
18813;BME280;9534;51.140;6.296;2023-07-30T04:00:18;102805.44;;;15.84;100.00
18813;BME280;9534;51.140;6.296;2023-07-30T04:04:22;102754.34;;;15.73;100.00
18813;BME280;9534;51.140;6.296;2023-07-30T04:08:25;102697.78;;;15.55;100.00
18813;BME280;9534;51.140;6.296;2023-07-30T04:12:28;102635.75;;;15.51;100.00
18813;BME280;9534;51.140;6.296;2023-07-30T04:16:33;102606.16;;;15.45;100.00
18813;BME280;9534;51.140;6.296;2023-07-30T04:20:37;102592.38;;;15.45;100.00
18813;BME280;9534;51.140;6.296;2023-07-30T04:24:40;102591.25;;;15.39;100.00
18813;BME280;9534;51.140;6.296;2023-07-30T04:28:44;102615.25;;;15.39;100.00
18813;BME280;9534;51.140;6.296;2023-07-30T04:32:47;102642.19;;;15.37;100.00
18813;BME280;9534;51.140;6.296;2023-07-30T04:36:51;102678.41;;;15.34;100.00
18813;BME280;9534;51.140;6.296;2023-07-30T04:40:57;102731.66;;;15.34;100.00
18813;BME280;9534;51.140;6.296;2023-07-30T04:45:01;102756.03;;;15.31;100.00
18813;BME280;9534;51.140;6.296;2023-07-30T04:49:06;102755.75;;;15.26;100.00
18813;BME280;9534;51.140;6.296;2023-07-30T04:53:11;102772.31;;;15.26;100.00
18813;BME280;9534;51.140;6.296;2023-07-30T04:57:14;102770.47;;;15.18;100.00
18813;BME280;9534;51.140;6.296;2023-07-30T05:01:17;102772.00;;;15.21;100.00
18813;BME280;9534;51.140;6.296;2023-07-30T05:05:20;102745.84;;;15.17;100.00
18813;BME280;9534;51.140;6.296;2023-07-30T05:09:25;102722.44;;;15.13;100.00
18813;BME280;9534;51.140;6.296;2023-07-30T05:13:28;102712.06;;;15.15;100.00
18813;BME280;9534;51.140;6.296;2023-07-30T05:17:31;102714.84;;;15.15;100.00
18813;BME280;9534;51.140;6.296;2023-07-30T05:21:34;102711.88;;;15.16;100.00
18813;BME280;9534;51.140;6.296;2023-07-30T05:25:39;102719.59;;;15.21;100.00
18813;BME280;9534;51.140;6.296;2023-07-30T05:29:41;102720.56;;;15.28;100.00
18813;BME280;9534;51.140;6.296;2023-07-30T05:33:47;102714.38;;;15.26;100.00
18813;BME280;9534;51.140;6.296;2023-07-30T05:37:50;102707.50;;;15.22;100.00
18813;BME280;9534;51.140;6.296;2023-07-30T05:41:54;102722.06;;;15.16;100.00
18813;BME280;9534;51.140;6.296;2023-07-30T05:45:57;102711.97;;;15.23;100.00
18813;BME280;9534;51.140;6.296;2023-07-30T05:50:01;102713.31;;;15.27;100.00
18813;BME280;9534;51.140;6.296;2023-07-30T05:54:04;102726.25;;;15.41;100.00
18813;BME280;9534;51.140;6.296;2023-07-30T05:58:08;102727.97;;;15.42;100.00
18813;BME280;9534;51.140;6.296;2023-07-30T06:02:11;102746.63;;;15.54;100.00
18813;BME280;9534;51.140;6.296;2023-07-30T06:06:14;102759.56;;;15.54;100.00
18813;BME280;9534;51.140;6.296;2023-07-30T06:10:17;102768.91;;;15.53;100.00
18813;BME280;9534;51.140;6.296;2023-07-30T06:14:22;102769.38;;;15.56;100.00
18813;BME280;9534;51.140;6.296;2023-07-30T06:18:25;102762.31;;;15.54;100.00
18813;BME280;9534;51.140;6.296;2023-07-30T06:22:28;102742.25;;;15.60;100.00
18813;BME280;9534;51.140;6.296;2023-07-30T06:26:31;102749.25;;;15.77;100.00
18813;BME280;9534;51.140;6.296;2023-07-30T06:30:35;102771.53;;;15.90;100.00
18813;BME280;9534;51.140;6.296;2023-07-30T06:34:40;102787.41;;;16.02;100.00
18813;BME280;9534;51.140;6.296;2023-07-30T06:38:43;102817.69;;;16.10;100.00
18813;BME280;9534;51.140;6.296;2023-07-30T06:42:46;102853.41;;;16.11;100.00
18813;BME280;9534;51.140;6.296;2023-07-30T06:46:51;102866.75;;;16.22;100.00
18813;BME280;9534;51.140;6.296;2023-07-30T06:50:54;102896.22;;;16.36;100.00
18813;BME280;9534;51.140;6.296;2023-07-30T06:54:57;102947.84;;;16.44;100.00
18813;BME280;9534;51.140;6.296;2023-07-30T06:59:01;102969.25;;;16.56;100.00
18813;BME280;9534;51.140;6.296;2023-07-30T07:03:06;103013.22;;;16.66;100.00
18813;BME280;9534;51.140;6.296;2023-07-30T07:07:09;103017.88;;;16.65;100.00
18813;BME280;9534;51.140;6.296;2023-07-30T07:11:13;103036.47;;;16.71;100.00
18813;BME280;9534;51.140;6.296;2023-07-30T07:15:16;103029.22;;;16.70;100.00
18813;BME280;9534;51.140;6.296;2023-07-30T07:19:21;103047.69;;;16.70;100.00
18813;BME280;9534;51.140;6.296;2023-07-30T07:23:24;103044.38;;;16.74;100.00
18813;BME280;9534;51.140;6.296;2023-07-30T07:27:27;103051.25;;;16.78;100.00
18813;BME280;9534;51.140;6.296;2023-07-30T07:31:30;103048.97;;;16.67;100.00
18813;BME280;9534;51.140;6.296;2023-07-30T07:35:37;103022.56;;;16.65;100.00
18813;BME280;9534;51.140;6.296;2023-07-30T07:39:40;103026.47;;;16.70;100.00
18813;BME280;9534;51.140;6.296;2023-07-30T07:43:43;103016.69;;;16.89;100.00
18813;BME280;9534;51.140;6.296;2023-07-30T07:47:47;103018.91;;;16.79;100.00
18813;BME280;9534;51.140;6.296;2023-07-30T07:51:51;103025.09;;;16.81;100.00
18813;BME280;9534;51.140;6.296;2023-07-30T07:55:54;103063.63;;;16.82;100.00
18813;BME280;9534;51.140;6.296;2023-07-30T07:59:57;103057.34;;;16.88;100.00
18813;BME280;9534;51.140;6.296;2023-07-30T08:04:00;103080.81;;;16.92;100.00
18813;BME280;9534;51.140;6.296;2023-07-30T08:08:04;103087.56;;;17.04;100.00
18813;BME280;9534;51.140;6.296;2023-07-30T08:12:08;103099.97;;;16.94;100.00
18813;BME280;9534;51.140;6.296;2023-07-30T08:16:11;103116.28;;;17.03;100.00
18813;BME280;9534;51.140;6.296;2023-07-30T08:20:14;103131.47;;;17.07;100.00
18813;BME280;9534;51.140;6.296;2023-07-30T08:24:18;103138.75;;;17.29;100.00
18813;BME280;9534;51.140;6.296;2023-07-30T08:28:21;103131.00;;;17.39;100.00
18813;BME280;9534;51.140;6.296;2023-07-30T08:32:25;103120.97;;;17.38;100.00
18813;BME280;9534;51.140;6.296;2023-07-30T08:36:28;103100.19;;;17.42;100.00
18813;BME280;9534;51.140;6.296;2023-07-30T08:40:32;103076.13;;;17.28;100.00
18813;BME280;9534;51.140;6.296;2023-07-30T08:44:36;103035.28;;;17.30;100.00
18813;BME280;9534;51.140;6.296;2023-07-30T08:48:39;102988.22;;;17.30;100.00
18813;BME280;9534;51.140;6.296;2023-07-30T08:52:46;102857.31;;;17.91;100.00
18813;BME280;9534;51.140;6.296;2023-07-30T08:56:51;101627.50;;;18.07;100.00
18813;BME280;9534;51.140;6.296;2023-07-30T09:00:55;101522.69;;;18.04;100.00
18813;BME280;9534;51.140;6.296;2023-07-30T09:04:58;101050.31;;;19.55;100.00
18813;BME280;9534;51.140;6.296;2023-07-30T09:09:03;100753.28;;;19.60;100.00
18813;BME280;9534;51.140;6.296;2023-07-30T09:13:07;100683.59;;;19.25;100.00
18813;BME280;9534;51.140;6.296;2023-07-30T09:17:10;100685.66;;;19.39;100.00
18813;BME280;9534;51.140;6.296;2023-07-30T09:21:13;100630.09;;;19.29;100.00
18813;BME280;9534;51.140;6.296;2023-07-30T09:25:17;100605.34;;;18.91;100.00
18813;BME280;9534;51.140;6.296;2023-07-30T09:29:23;100647.94;;;19.07;100.00
18813;BME280;9534;51.140;6.296;2023-07-30T09:33:26;100610.13;;;19.84;100.00
18813;BME280;9534;51.140;6.296;2023-07-30T09:37:29;100369.19;;;20.99;100.00
18813;BME280;9534;51.140;6.296;2023-07-30T09:41:32;100226.28;;;20.70;100.00
18813;BME280;9534;51.140;6.296;2023-07-30T09:45:38;100215.78;;;20.57;100.00
18813;BME280;9534;51.140;6.296;2023-07-30T09:49:41;100213.41;;;20.94;100.00
18813;BME280;9534;51.140;6.296;2023-07-30T09:53:44;100222.88;;;20.83;100.00
18813;BME280;9534;51.140;6.296;2023-07-30T09:57:47;100209.75;;;21.70;100.00
18813;BME280;9534;51.140;6.296;2023-07-30T10:01:52;100209.59;;;20.70;100.00
18813;BME280;9534;51.140;6.296;2023-07-30T10:05:59;100214.91;;;20.71;100.00
18813;BME280;9534;51.140;6.296;2023-07-30T10:10:05;100201.53;;;21.21;100.00
18813;BME280;9534;51.140;6.296;2023-07-30T10:14:08;100190.47;;;21.45;100.00
18813;BME280;9534;51.140;6.296;2023-07-30T10:18:13;100175.03;;;21.57;100.00
18813;BME280;9534;51.140;6.296;2023-07-30T10:22:20;100186.63;;;21.03;100.00
18813;BME280;9534;51.140;6.296;2023-07-30T10:26:26;100176.69;;;20.87;100.00
18813;BME280;9534;51.140;6.296;2023-07-30T10:30:30;100196.88;;;20.59;100.00
18813;BME280;9534;51.140;6.296;2023-07-30T10:34:44;100185.28;;;20.47;100.00
18813;BME280;9534;51.140;6.296;2023-07-30T10:38:47;100203.56;;;20.53;100.00
18813;BME280;9534;51.140;6.296;2023-07-30T10:42:51;100220.44;;;19.83;100.00
18813;BME280;9534;51.140;6.296;2023-07-30T10:46:54;100253.69;;;18.93;100.00
18813;BME280;9534;51.140;6.296;2023-07-30T10:50:59;100276.97;;;18.87;100.00
18813;BME280;9534;51.140;6.296;2023-07-30T10:55:02;100269.91;;;19.46;100.00
18813;BME280;9534;51.140;6.296;2023-07-30T10:59:05;100249.53;;;20.25;100.00
18813;BME280;9534;51.140;6.296;2023-07-30T11:03:09;100229.28;;;20.88;100.00
18813;BME280;9534;51.140;6.296;2023-07-30T11:07:17;100233.44;;;21.34;100.00
18813;BME280;9534;51.140;6.296;2023-07-30T11:11:20;100241.78;;;20.91;100.00
18813;BME280;9534;51.140;6.296;2023-07-30T11:15:26;100245.72;;;20.75;100.00
18813;BME280;9534;51.140;6.296;2023-07-30T11:19:29;100260.41;;;20.27;100.00
18813;BME280;9534;51.140;6.296;2023-07-30T11:23:34;100256.53;;;20.23;100.00
18813;BME280;9534;51.140;6.296;2023-07-30T11:27:44;100259.63;;;19.91;100.00
18813;BME280;9534;51.140;6.296;2023-07-30T11:31:47;100279.88;;;19.72;100.00
18813;BME280;9534;51.140;6.296;2023-07-30T11:35:51;100281.25;;;19.40;100.00
18813;BME280;9534;51.140;6.296;2023-07-30T11:39:55;100271.81;;;19.31;100.00
18813;BME280;9534;51.140;6.296;2023-07-30T11:43:58;100304.72;;;18.97;100.00
18813;BME280;9534;51.140;6.296;2023-07-30T11:48:08;100312.06;;;18.62;100.00
18813;BME280;9534;51.140;6.296;2023-07-30T11:52:11;100325.31;;;18.50;100.00
18813;BME280;9534;51.140;6.296;2023-07-30T11:56:22;100295.25;;;18.78;100.00
18813;BME280;9534;51.140;6.296;2023-07-30T12:00:26;100294.69;;;18.81;100.00
18813;BME280;9534;51.140;6.296;2023-07-30T12:04:30;100308.56;;;18.76;100.00
18813;BME280;9534;51.140;6.296;2023-07-30T12:08:33;100310.00;;;18.94;100.00
18813;BME280;9534;51.140;6.296;2023-07-30T12:12:38;100300.91;;;19.18;100.00
18813;BME280;9534;51.140;6.296;2023-07-30T12:16:46;100334.06;;;18.73;100.00
18813;BME280;9534;51.140;6.296;2023-07-30T12:20:49;100386.63;;;18.22;100.00
18813;BME280;9534;51.140;6.296;2023-07-30T12:24:53;100408.47;;;17.56;100.00
18813;BME280;9534;51.140;6.296;2023-07-30T12:28:57;100426.78;;;18.20;100.00
18813;BME280;9534;51.140;6.296;2023-07-30T12:33:00;100374.53;;;19.51;100.00
18813;BME280;9534;51.140;6.296;2023-07-30T12:37:03;100331.00;;;20.26;100.00
18813;BME280;9534;51.140;6.296;2023-07-30T12:41:06;100312.28;;;21.24;100.00
18813;BME280;9534;51.140;6.296;2023-07-30T12:45:11;100294.09;;;20.84;100.00
18813;BME280;9534;51.140;6.296;2023-07-30T12:49:14;100284.00;;;21.84;100.00
18813;BME280;9534;51.140;6.296;2023-07-30T12:53:17;100267.59;;;22.11;100.00
18813;BME280;9534;51.140;6.296;2023-07-30T12:57:20;100252.91;;;22.76;100.00
18813;BME280;9534;51.140;6.296;2023-07-30T13:01:24;100268.81;;;22.52;100.00
18813;BME280;9534;51.140;6.296;2023-07-30T13:05:27;100271.84;;;22.97;100.00
18813;BME280;9534;51.140;6.296;2023-07-30T13:09:31;100271.31;;;22.77;100.00
18813;BME280;9534;51.140;6.296;2023-07-30T13:13:37;100262.34;;;22.05;100.00
18813;BME280;9534;51.140;6.296;2023-07-30T13:17:41;100263.28;;;21.62;100.00
18813;BME280;9534;51.140;6.296;2023-07-30T13:21:44;100261.91;;;21.21;100.00
18813;BME280;9534;51.140;6.296;2023-07-30T13:25:47;100253.69;;;21.39;100.00
18813;BME280;9534;51.140;6.296;2023-07-30T13:29:50;100261.19;;;21.82;100.00
18813;BME280;9534;51.140;6.296;2023-07-30T13:33:55;100250.16;;;22.71;100.00
18813;BME280;9534;51.140;6.296;2023-07-30T13:38:02;100262.06;;;22.58;100.00
18813;BME280;9534;51.140;6.296;2023-07-30T13:42:05;100258.81;;;22.69;100.00
18813;BME280;9534;51.140;6.296;2023-07-30T13:46:08;100253.84;;;22.90;100.00
18813;BME280;9534;51.140;6.296;2023-07-30T13:50:12;100252.50;;;23.43;100.00
18813;BME280;9534;51.140;6.296;2023-07-30T13:54:18;100255.50;;;23.65;100.00
18813;BME280;9534;51.140;6.296;2023-07-30T13:58:21;100247.63;;;23.67;100.00
18813;BME280;9534;51.140;6.296;2023-07-30T14:02:24;100257.41;;;23.51;100.00
18813;BME280;9534;51.140;6.296;2023-07-30T14:06:28;100259.88;;;23.71;100.00
18813;BME280;9534;51.140;6.296;2023-07-30T14:10:32;100253.31;;;23.93;100.00
18813;BME280;9534;51.140;6.296;2023-07-30T14:14:38;100257.91;;;23.89;100.00
18813;BME280;9534;51.140;6.296;2023-07-30T14:18:41;100257.16;;;23.97;100.00
18813;BME280;9534;51.140;6.296;2023-07-30T14:22:46;100249.75;;;23.74;100.00
18813;BME280;9534;51.140;6.296;2023-07-30T14:26:50;100240.16;;;24.26;100.00
18813;BME280;9534;51.140;6.296;2023-07-30T14:30:53;100272.91;;;23.93;100.00
18813;BME280;9534;51.140;6.296;2023-07-30T14:34:56;100250.25;;;24.08;100.00
18813;BME280;9534;51.140;6.296;2023-07-30T14:39:01;100244.63;;;23.08;100.00
18813;BME280;9534;51.140;6.296;2023-07-30T14:43:04;100230.69;;;23.45;100.00
18813;BME280;9534;51.140;6.296;2023-07-30T14:47:07;100248.66;;;25.02;100.00
18813;BME280;9534;51.140;6.296;2023-07-30T14:51:11;100253.75;;;24.00;100.00
18813;BME280;9534;51.140;6.296;2023-07-30T14:55:17;100247.16;;;23.46;100.00
18813;BME280;9534;51.140;6.296;2023-07-30T14:59:20;100259.63;;;24.44;100.00
18813;BME280;9534;51.140;6.296;2023-07-30T15:03:23;100251.56;;;23.97;100.00
18813;BME280;9534;51.140;6.296;2023-07-30T15:07:26;100240.13;;;23.49;100.00
18813;BME280;9534;51.140;6.296;2023-07-30T15:11:34;100249.56;;;23.84;100.00
18813;BME280;9534;51.140;6.296;2023-07-30T15:15:37;100241.78;;;23.81;100.00
18813;BME280;9534;51.140;6.296;2023-07-30T15:19:40;100233.09;;;24.82;100.00
18813;BME280;9534;51.140;6.296;2023-07-30T15:23:44;100240.81;;;25.25;100.00
18813;BME280;9534;51.140;6.296;2023-07-30T15:27:48;100240.47;;;24.78;100.00
18813;BME280;9534;51.140;6.296;2023-07-30T15:31:51;100232.78;;;24.16;100.00
18813;BME280;9534;51.140;6.296;2023-07-30T15:35:54;100219.78;;;23.62;100.00
18813;BME280;9534;51.140;6.296;2023-07-30T15:39:58;100217.28;;;23.28;100.00
18813;BME280;9534;51.140;6.296;2023-07-30T15:44:02;100237.41;;;23.94;100.00
18813;BME280;9534;51.140;6.296;2023-07-30T15:48:06;100242.38;;;23.47;100.00
18813;BME280;9534;51.140;6.296;2023-07-30T15:52:09;100245.56;;;23.72;100.00
18813;BME280;9534;51.140;6.296;2023-07-30T15:56:12;100245.09;;;24.15;100.00
18813;BME280;9534;51.140;6.296;2023-07-30T16:00:18;100241.19;;;24.84;100.00
18813;BME280;9534;51.140;6.296;2023-07-30T16:04:23;100238.91;;;24.45;100.00
18813;BME280;9534;51.140;6.296;2023-07-30T16:08:26;100238.56;;;23.74;100.00
18813;BME280;9534;51.140;6.296;2023-07-30T16:12:30;100226.78;;;23.27;100.00
18813;BME280;9534;51.140;6.296;2023-07-30T16:16:34;100222.66;;;22.83;100.00
18813;BME280;9534;51.140;6.296;2023-07-30T16:20:40;100240.81;;;22.62;100.00
18813;BME280;9534;51.140;6.296;2023-07-30T16:24:43;100225.94;;;22.66;100.00
18813;BME280;9534;51.140;6.296;2023-07-30T16:28:47;100212.91;;;22.62;100.00
18813;BME280;9534;51.140;6.296;2023-07-30T16:32:52;100204.84;;;22.60;100.00
18813;BME280;9534;51.140;6.296;2023-07-30T16:36:55;100197.81;;;22.63;100.00
18813;BME280;9534;51.140;6.296;2023-07-30T16:40:59;100207.06;;;22.35;100.00
18813;BME280;9534;51.140;6.296;2023-07-30T16:45:03;100207.19;;;22.25;100.00
18813;BME280;9534;51.140;6.296;2023-07-30T16:49:07;100206.75;;;22.18;100.00
18813;BME280;9534;51.140;6.296;2023-07-30T16:53:11;100209.09;;;22.06;100.00
18813;BME280;9534;51.140;6.296;2023-07-30T16:57:14;100216.00;;;21.85;100.00
18813;BME280;9534;51.140;6.296;2023-07-30T17:01:17;100225.38;;;21.66;100.00
18813;BME280;9534;51.140;6.296;2023-07-30T17:05:23;100234.63;;;21.56;100.00
18813;BME280;9534;51.140;6.296;2023-07-30T17:09:27;100254.28;;;21.36;100.00
18813;BME280;9534;51.140;6.296;2023-07-30T17:13:30;100262.28;;;20.41;100.00
18813;BME280;9534;51.140;6.296;2023-07-30T17:17:33;100294.13;;;18.74;100.00
18813;BME280;9534;51.140;6.296;2023-07-30T17:21:37;100381.97;;;18.28;100.00
18813;BME280;9534;51.140;6.296;2023-07-30T17:25:40;100434.22;;;17.83;100.00
18813;BME280;9534;51.140;6.296;2023-07-30T17:29:43;100621.91;;;17.43;100.00
18813;BME280;9534;51.140;6.296;2023-07-30T17:33:47;100861.25;;;17.01;100.00
18813;BME280;9534;51.140;6.296;2023-07-30T17:37:51;101056.00;;;16.71;100.00
18813;BME280;9534;51.140;6.296;2023-07-30T17:41:54;101376.69;;;16.53;100.00
18813;BME280;9534;51.140;6.296;2023-07-30T17:45:57;102762.34;;;16.39;100.00
18813;BME280;9534;51.140;6.296;2023-07-30T17:50:05;102626.03;;;16.38;100.00
18813;BME280;9534;51.140;6.296;2023-07-30T17:54:09;102579.44;;;16.35;100.00
18813;BME280;9534;51.140;6.296;2023-07-30T17:58:13;102547.22;;;16.42;100.00
18813;BME280;9534;51.140;6.296;2023-07-30T18:02:16;102531.09;;;16.46;100.00
18813;BME280;9534;51.140;6.296;2023-07-30T18:06:21;102524.72;;;16.45;100.00
18813;BME280;9534;51.140;6.296;2023-07-30T18:10:25;102518.78;;;16.48;100.00
18813;BME280;9534;51.140;6.296;2023-07-30T18:14:29;102522.19;;;16.50;100.00
18813;BME280;9534;51.140;6.296;2023-07-30T18:18:33;102523.66;;;16.46;100.00
18813;BME280;9534;51.140;6.296;2023-07-30T18:22:36;102529.19;;;16.46;100.00
18813;BME280;9534;51.140;6.296;2023-07-30T18:26:41;102515.69;;;16.37;100.00
18813;BME280;9534;51.140;6.296;2023-07-30T18:30:44;102537.81;;;16.37;100.00
18813;BME280;9534;51.140;6.296;2023-07-30T18:34:47;102528.41;;;16.31;100.00
18813;BME280;9534;51.140;6.296;2023-07-30T18:38:52;102526.69;;;16.30;100.00
18813;BME280;9534;51.140;6.296;2023-07-30T18:42:57;102548.41;;;16.33;100.00
18813;BME280;9534;51.140;6.296;2023-07-30T18:47:01;102548.16;;;16.28;100.00
18813;BME280;9534;51.140;6.296;2023-07-30T18:51:05;102569.78;;;16.18;100.00
18813;BME280;9534;51.140;6.296;2023-07-30T18:55:08;102549.72;;;16.10;100.00
18813;BME280;9534;51.140;6.296;2023-07-30T18:59:13;102548.22;;;16.08;100.00
18813;BME280;9534;51.140;6.296;2023-07-30T19:03:16;102541.41;;;16.10;100.00
18813;BME280;9534;51.140;6.296;2023-07-30T19:07:19;102540.75;;;16.08;100.00
18813;BME280;9534;51.140;6.296;2023-07-30T19:11:22;102544.41;;;16.08;100.00
18813;BME280;9534;51.140;6.296;2023-07-30T19:15:26;102533.09;;;16.04;100.00
18813;BME280;9534;51.140;6.296;2023-07-30T19:19:31;102555.19;;;16.04;100.00
18813;BME280;9534;51.140;6.296;2023-07-30T19:23:34;102565.59;;;16.02;100.00
18813;BME280;9534;51.140;6.296;2023-07-30T19:27:37;102577.41;;;15.96;100.00
18813;BME280;9534;51.140;6.296;2023-07-30T19:31:42;102569.31;;;15.94;100.00
18813;BME280;9534;51.140;6.296;2023-07-30T19:35:47;102581.63;;;15.92;100.00
18813;BME280;9534;51.140;6.296;2023-07-30T19:39:52;102574.19;;;15.92;100.00
18813;BME280;9534;51.140;6.296;2023-07-30T19:43:57;102583.53;;;15.91;100.00
18813;BME280;9534;51.140;6.296;2023-07-30T19:48:02;102566.78;;;15.93;100.00
18813;BME280;9534;51.140;6.296;2023-07-30T19:52:06;102585.44;;;15.91;100.00
18813;BME280;9534;51.140;6.296;2023-07-30T19:56:10;102575.25;;;15.91;100.00
18813;BME280;9534;51.140;6.296;2023-07-30T20:00:13;102586.75;;;15.95;100.00
18813;BME280;9534;51.140;6.296;2023-07-30T20:04:18;102587.81;;;15.94;100.00
18813;BME280;9534;51.140;6.296;2023-07-30T20:08:21;102595.72;;;15.97;100.00
18813;BME280;9534;51.140;6.296;2023-07-30T20:12:24;102590.84;;;15.99;100.00
18813;BME280;9534;51.140;6.296;2023-07-30T20:16:27;102595.31;;;16.00;100.00
18813;BME280;9534;51.140;6.296;2023-07-30T20:20:31;102589.97;;;15.98;100.00
18813;BME280;9534;51.140;6.296;2023-07-30T20:24:34;102578.09;;;15.98;100.00
18813;BME280;9534;51.140;6.296;2023-07-30T20:28:37;102579.13;;;15.97;100.00
18813;BME280;9534;51.140;6.296;2023-07-30T20:32:40;102577.88;;;15.99;100.00
18813;BME280;9534;51.140;6.296;2023-07-30T20:36:44;102570.22;;;16.01;100.00
18813;BME280;9534;51.140;6.296;2023-07-30T20:40:47;102567.28;;;16.03;100.00
18813;BME280;9534;51.140;6.296;2023-07-30T20:44:51;102560.31;;;16.07;100.00
18813;BME280;9534;51.140;6.296;2023-07-30T20:48:54;102566.91;;;16.06;100.00
18813;BME280;9534;51.140;6.296;2023-07-30T20:52:59;102552.03;;;16.07;100.00
18813;BME280;9534;51.140;6.296;2023-07-30T20:57:02;102556.50;;;16.08;100.00
18813;BME280;9534;51.140;6.296;2023-07-30T21:01:05;102544.84;;;16.12;100.00
18813;BME280;9534;51.140;6.296;2023-07-30T21:05:08;102551.41;;;16.11;100.00
18813;BME280;9534;51.140;6.296;2023-07-30T21:09:13;102554.00;;;16.12;100.00
18813;BME280;9534;51.140;6.296;2023-07-30T21:13:16;102541.25;;;16.11;100.00